Time,TemperatureF,DewpointF,PressureIn,WindDirection,WindDirectionDegrees,WindSpeedMPH,WindSpeedGustMPH,Humidity,HourlyPrecipIn,Conditions,Clouds,dailyrainin,SoftwareType,DateUTC
2013-05-23 00:00:00,53.1,37.3,29.82,West,275,1.0,1.0,55,0.00,,,0.00,Wunderground v.1.15,2013-05-23 07:00:00,
2013-05-23 00:11:00,53.2,37.4,29.82,West,269,1.0,3.0,55,0.00,,,0.00,Wunderground v.1.15,2013-05-23 07:11:00,
2013-05-23 00:20:00,53.0,37.3,29.82,SW,226,1.0,1.0,55,0.00,,,0.00,Wunderground v.1.15,2013-05-23 07:20:00,
2013-05-23 00:25:00,52.8,37.1,29.82,WSW,250,1.0,3.0,55,0.00,,,0.00,Wunderground v.1.15,2013-05-23 07:25:00,
2013-05-23 00:30:00,52.4,37.2,29.82,West,278,1.0,1.0,56,0.00,,,0.00,Wunderground v.1.15,2013-05-23 07:30:00,
2013-05-23 00:35:00,52.5,37.2,29.82,WSW,254,1.0,1.0,56,0.00,,,0.00,Wunderground v.1.15,2013-05-23 07:35:00,
2013-05-23 00:40:00,52.3,37.1,29.82,WSW,247,1.0,1.0,56,0.00,,,0.00,Wunderground v.1.15,2013-05-23 07:40:00,
2013-05-23 00:45:00,52.1,37.3,29.82,West,260,1.0,1.0,57,0.00,,,0.00,Wunderground v.1.15,2013-05-23 07:45:00,
2013-05-23 00:55:00,51.8,37.5,29.82,WNW,300,1.0,1.0,58,0.00,,,0.00,Wunderground v.1.15,2013-05-23 07:55:00,
2013-05-23 01:00:00,51.7,37.4,29.82,WSW,248,2.0,2.0,58,0.00,,,0.00,Wunderground v.1.15,2013-05-23 08:00:00,
2013-05-23 01:06:00,51.8,37.5,29.82,WSW,256,2.0,3.0,58,0.00,,,0.00,Wunderground v.1.15,2013-05-23 08:06:00,
2013-05-23 01:15:00,51.4,37.5,29.82,WSW,251,2.0,5.0,59,0.00,,,0.00,Wunderground v.1.15,2013-05-23 08:15:00,
2013-05-23 01:20:00,51.2,37.8,29.82,West,281,1.0,4.0,60,0.00,,,0.00,Wunderground v.1.15,2013-05-23 08:20:00,
2013-05-23 01:25:00,51.0,37.6,29.82,SW,231,1.0,4.0,60,0.00,,,0.00,Wunderground v.1.15,2013-05-23 08:25:00,
2013-05-23 01:35:00,50.7,37.7,29.82,WSW,250,2.0,3.0,61,0.00,,,0.00,Wunderground v.1.15,2013-05-23 08:35:00,
2013-05-23 01:40:00,50.5,37.5,29.82,NW,316,2.0,5.0,61,0.00,,,0.00,Wunderground v.1.15,2013-05-23 08:40:00,
2013-05-23 01:45:00,50.3,37.8,29.82,WSW,246,2.0,5.0,62,0.00,,,0.00,Wunderground v.1.15,2013-05-23 08:45:00,
2013-05-23 01:50:00,50.2,37.7,29.82,West,261,2.0,3.0,62,0.00,,,0.00,Wunderground v.1.15,2013-05-23 08:50:00,
2013-05-23 01:55:00,50.0,37.9,29.82,WNW,288,2.0,3.0,63,0.00,,,0.00,Wunderground v.1.15,2013-05-23 08:55:00,
2013-05-23 02:05:00,49.6,37.5,29.81,SE,132,1.0,2.0,63,0.00,,,0.00,Wunderground v.1.15,2013-05-23 09:05:00,
2013-05-23 02:11:00,49.5,37.8,29.82,WSW,255,1.0,3.0,64,0.00,,,0.00,Wunderground v.1.15,2013-05-23 09:11:00,
2013-05-23 02:20:00,49.4,37.7,29.82,SE,127,2.0,2.0,64,0.00,,,0.00,Wunderground v.1.15,2013-05-23 09:20:00,
2013-05-23 02:25:00,49.2,37.9,29.82,SSE,155,1.0,3.0,65,0.00,,,0.00,Wunderground v.1.15,2013-05-23 09:25:00,
2013-05-23 02:35:00,49.3,38.0,29.81,WSW,254,2.0,3.0,65,0.00,,,0.00,Wunderground v.1.15,2013-05-23 09:35:00,
2013-05-23 02:40:00,49.2,37.9,29.81,NW,309,1.0,1.0,65,0.00,,,0.00,Wunderground v.1.15,2013-05-23 09:40:00,
2013-05-23 02:45:00,49.2,37.9,29.81,WSW,239,1.0,2.0,65,0.00,,,0.00,Wunderground v.1.15,2013-05-23 09:45:00,
2013-05-23 02:50:00,49.1,37.8,29.81,West,274,1.0,1.0,65,0.00,,,0.00,Wunderground v.1.15,2013-05-23 09:50:00,
2013-05-23 03:00:00,48.7,37.8,29.81,West,277,1.0,1.0,66,0.00,,,0.00,Wunderground v.1.15,2013-05-23 10:00:00,
2013-05-23 03:11:00,48.7,37.8,29.82,WSW,242,1.0,1.0,66,0.00,,,0.00,Wunderground v.1.15,2013-05-23 10:11:00,
2013-05-23 03:20:00,48.5,38.0,29.81,West,261,1.0,1.0,67,0.00,,,0.00,Wunderground v.1.15,2013-05-23 10:20:00,
2013-05-23 03:25:00,48.4,37.6,29.81,WSW,250,1.0,1.0,66,0.00,,,0.00,Wunderground v.1.15,2013-05-23 10:25:00,
2013-05-23 03:30:00,47.9,37.5,29.81,WNW,285,0.0,0.0,67,0.00,,,0.00,Wunderground v.1.15,2013-05-23 10:30:00,
2013-05-23 03:35:00,47.6,37.6,29.81,WNW,290,0.0,0.0,68,0.00,,,0.00,Wunderground v.1.15,2013-05-23 10:35:00,
2013-05-23 03:40:00,47.5,37.5,29.81,WNW,288,0.0,0.0,68,0.00,,,0.00,Wunderground v.1.15,2013-05-23 10:40:00,
2013-05-23 03:45:00,47.5,37.8,29.81,WNW,303,1.0,1.0,69,0.00,,,0.00,Wunderground v.1.15,2013-05-23 10:45:00,
2013-05-23 03:55:00,47.6,37.9,29.82,NW,307,1.0,2.0,69,0.00,,,0.00,Wunderground v.1.15,2013-05-23 10:55:00,
2013-05-23 04:00:00,47.6,37.9,29.82,NNW,328,1.0,1.0,69,0.00,,,0.00,Wunderground v.1.15,2013-05-23 11:00:00,
2013-05-23 04:05:00,47.7,38.0,29.82,East,93,2.0,2.0,69,0.00,,,0.00,Wunderground v.1.15,2013-05-23 11:05:00,
2013-05-23 04:15:00,47.5,38.2,29.82,NNE,29,2.0,2.0,70,0.00,,,0.00,Wunderground v.1.15,2013-05-23 11:15:00,
2013-05-23 04:20:00,47.2,37.9,29.82,NNW,348,1.0,2.0,70,0.00,,,0.00,Wunderground v.1.15,2013-05-23 11:20:00,
2013-05-23 04:25:00,47.2,37.9,29.82,West,262,1.0,1.0,70,0.00,,,0.00,Wunderground v.1.15,2013-05-23 11:25:00,
2013-05-23 04:30:00,47.1,37.8,29.82,WSW,240,1.0,1.0,70,0.00,,,0.00,Wunderground v.1.15,2013-05-23 11:30:00,
2013-05-23 04:35:00,46.9,38.0,29.82,WNW,290,1.0,1.0,71,0.00,,,0.00,Wunderground v.1.15,2013-05-23 11:35:00,
2013-05-23 04:40:00,46.7,37.8,29.82,NE,46,1.0,1.0,71,0.00,,,0.00,Wunderground v.1.15,2013-05-23 11:40:00,
2013-05-23 04:50:00,46.5,38.0,29.82,SW,228,1.0,1.0,72,0.00,,,0.00,Wunderground v.1.15,2013-05-23 11:50:00,
2013-05-23 04:55:00,46.0,37.5,29.83,NW,311,0.0,0.0,72,0.00,,,0.00,Wunderground v.1.15,2013-05-23 11:55:00,
2013-05-23 05:00:00,45.8,37.6,29.83,NW,326,0.0,0.0,73,0.00,,,0.00,Wunderground v.1.15,2013-05-23 12:00:00,
2013-05-23 05:11:00,46.0,37.8,29.82,West,266,1.0,5.0,73,0.00,,,0.00,Wunderground v.1.15,2013-05-23 12:11:00,
2013-05-23 05:20:00,46.1,37.9,29.82,West,279,1.0,1.0,73,0.00,,,0.00,Wunderground v.1.15,2013-05-23 12:20:00,
2013-05-23 05:25:00,45.9,37.7,29.82,WSW,238,1.0,1.0,73,0.00,,,0.00,Wunderground v.1.15,2013-05-23 12:25:00,
2013-05-23 05:30:00,45.8,37.6,29.82,West,269,0.0,1.0,73,0.00,,,0.00,Wunderground v.1.15,2013-05-23 12:30:00,
2013-05-23 05:40:00,45.2,37.7,29.83,West,260,0.0,0.0,75,0.00,,,0.00,Wunderground v.1.15,2013-05-23 12:40:00,
2013-05-23 05:45:00,45.4,37.6,29.82,SE,146,0.0,0.0,74,0.00,,,0.00,Wunderground v.1.15,2013-05-23 12:45:00,
2013-05-23 05:50:00,45.2,37.4,29.82,West,271,0.0,0.0,74,0.00,,,0.00,Wunderground v.1.15,2013-05-23 12:50:00,
2013-05-23 05:55:00,44.9,37.5,29.83,SW,230,0.0,0.0,75,0.00,,,0.00,Wunderground v.1.15,2013-05-23 12:55:00,
2013-05-23 06:05:00,45.3,37.8,29.83,SW,214,1.0,1.0,75,0.00,,,0.00,Wunderground v.1.15,2013-05-23 13:05:00,
2013-05-23 06:11:00,45.4,37.6,29.83,WSW,248,0.0,0.0,74,0.00,,,0.00,Wunderground v.1.15,2013-05-23 13:11:00,
2013-05-23 06:20:00,46.1,37.9,29.84,NNW,339,1.0,1.0,73,0.00,,,0.00,Wunderground v.1.15,2013-05-23 13:20:00,
2013-05-23 06:40:00,46.8,38.2,29.84,WSW,245,1.0,1.0,72,0.00,,,0.00,Wunderground v.1.15,2013-05-23 13:40:00,
2013-05-23 06:50:00,47.2,38.3,29.84,West,261,1.0,1.0,71,0.00,,,0.00,Wunderground v.1.15,2013-05-23 13:50:00,
2013-05-23 06:55:00,47.2,38.3,29.84,WSW,248,1.0,1.0,71,0.00,,,0.00,Wunderground v.1.15,2013-05-23 13:55:00,
2013-05-23 07:05:00,47.6,38.3,29.85,NE,51,1.0,2.0,70,0.00,,,0.00,Wunderground v.1.15,2013-05-23 14:05:00,
2013-05-23 07:10:00,47.8,38.5,29.85,North,356,1.0,1.0,70,0.00,,,0.00,Wunderground v.1.15,2013-05-23 14:10:00,
2013-05-23 07:20:00,48.4,38.7,29.85,NNW,333,2.0,3.0,69,0.00,,,0.00,Wunderground v.1.15,2013-05-23 14:20:00,
2013-05-23 07:25:00,48.5,38.8,29.85,NNW,343,2.0,3.0,69,0.00,,,0.00,Wunderground v.1.15,2013-05-23 14:25:00,
2013-05-23 07:35:00,48.8,39.1,29.86,SW,232,1.0,5.0,69,0.00,,,0.00,Wunderground v.1.15,2013-05-23 14:35:00,
2013-05-23 07:40:00,49.0,38.9,29.86,SW,229,2.0,4.0,68,0.00,,,0.00,Wunderground v.1.15,2013-05-23 14:40:00,
2013-05-23 07:50:00,49.6,39.1,29.85,West,274,1.0,3.0,67,0.00,,,0.00,Wunderground v.1.15,2013-05-23 14:50:00,
2013-05-23 07:55:00,50.0,39.5,29.85,West,268,1.0,3.0,67,0.00,,,0.00,Wunderground v.1.15,2013-05-23 14:55:00,
2013-05-23 08:00:00,50.3,39.4,29.86,NNW,328,2.0,2.0,66,0.00,,,0.00,Wunderground v.1.15,2013-05-23 15:00:00,
2013-05-23 08:10:00,51.5,39.7,29.86,SW,232,2.0,2.0,64,0.00,,,0.00,Wunderground v.1.15,2013-05-23 15:10:00,
2013-05-23 08:20:00,52.9,39.8,29.86,NNW,330,1.0,1.0,61,0.00,,,0.00,Wunderground v.1.15,2013-05-23 15:20:00,
2013-05-23 08:25:00,53.3,39.8,29.86,WSW,252,1.0,4.0,60,0.00,,,0.00,Wunderground v.1.15,2013-05-23 15:25:00,
2013-05-23 08:30:00,53.3,39.8,29.86,WSW,241,2.0,2.0,60,0.00,,,0.00,Wunderground v.1.15,2013-05-23 15:30:00,
2013-05-23 08:36:00,53.8,39.8,29.87,SW,221,2.0,2.0,59,0.00,,,0.00,Wunderground v.1.15,2013-05-23 15:36:00,
2013-05-23 08:45:00,55.2,40.7,29.87,ENE,64,1.0,2.0,58,0.00,,,0.00,Wunderground v.1.15,2013-05-23 15:45:00,
2013-05-23 08:50:00,55.7,39.8,29.87,West,261,1.0,6.0,55,0.00,,,0.00,Wunderground v.1.15,2013-05-23 15:50:00,
2013-05-23 08:55:00,56.0,40.1,29.87,WSW,242,2.0,6.0,55,0.00,,,0.00,Wunderground v.1.15,2013-05-23 15:55:00,
2013-05-23 09:05:00,56.3,40.3,29.88,WSW,239,3.0,3.0,55,0.00,,,0.00,Wunderground v.1.15,2013-05-23 16:05:00,
2013-05-23 09:15:00,57.0,40.5,29.88,WSW,243,2.0,2.0,54,0.00,,,0.00,Wunderground v.1.15,2013-05-23 16:15:00,
2013-05-23 09:20:00,57.2,40.2,29.88,SW,224,2.0,2.0,53,0.00,,,0.00,Wunderground v.1.15,2013-05-23 16:20:00,
2013-05-23 09:25:00,57.5,40.5,29.88,West,259,3.0,3.0,53,0.00,,,0.00,Wunderground v.1.15,2013-05-23 16:25:00,
2013-05-23 09:30:00,57.8,40.8,29.88,West,261,2.0,3.0,53,0.00,,,0.00,Wunderground v.1.15,2013-05-23 16:30:00,
2013-05-23 09:35:00,58.0,41.0,29.88,South,178,2.0,2.0,53,0.00,,,0.00,Wunderground v.1.15,2013-05-23 16:35:00,
2013-05-23 09:40:00,58.6,40.0,29.89,WNW,301,3.0,3.0,50,0.00,,,0.00,Wunderground v.1.15,2013-05-23 16:40:00,
2013-05-23 09:50:00,59.0,40.4,29.89,SW,218,2.0,2.0,50,0.00,,,0.00,Wunderground v.1.15,2013-05-23 16:50:00,
2013-05-23 09:55:00,59.4,40.7,29.89,WSW,247,2.0,2.0,50,0.00,,,0.00,Wunderground v.1.15,2013-05-23 16:55:00,
2013-05-23 10:00:00,59.5,40.3,29.88,NW,304,2.0,2.0,49,0.00,,,0.00,Wunderground v.1.15,2013-05-23 17:00:00,
2013-05-23 10:05:00,60.1,40.9,29.88,ESE,113,2.0,2.0,49,0.00,,,0.00,Wunderground v.1.15,2013-05-23 17:05:00,
2013-05-23 10:15:00,61.5,41.1,29.89,SW,231,2.0,2.0,47,0.00,,,0.00,Wunderground v.1.15,2013-05-23 17:15:00,
2013-05-23 10:20:00,63.0,41.3,29.89,ESE,123,1.0,2.0,45,0.00,,,0.00,Wunderground v.1.15,2013-05-23 17:20:00,
2013-05-23 10:25:00,64.2,41.2,29.89,ESE,117,0.0,2.0,43,0.00,,,0.00,Wunderground v.1.15,2013-05-23 17:25:00,
2013-05-23 10:30:00,64.2,40.6,29.89,SE,138,1.0,2.0,42,0.00,,,0.00,Wunderground v.1.15,2013-05-23 17:30:00,
2013-05-23 10:35:00,64.4,40.8,29.89,West,264,1.0,2.0,42,0.00,,,0.00,Wunderground v.1.15,2013-05-23 17:35:00,
2013-05-23 10:40:00,64.7,40.4,29.88,South,179,2.0,3.0,41,0.00,,,0.00,Wunderground v.1.15,2013-05-23 17:40:00,
2013-05-23 10:50:00,64.5,39.6,29.88,SW,229,2.0,2.0,40,0.00,,,0.00,Wunderground v.1.15,2013-05-23 17:50:00,
2013-05-23 10:55:00,64.3,40.1,29.89,SW,220,2.0,2.0,41,0.00,,,0.00,Wunderground v.1.15,2013-05-23 17:55:00,
2013-05-23 11:00:00,65.6,40.0,29.89,South,170,2.0,3.0,39,0.00,,,0.00,Wunderground v.1.15,2013-05-23 18:00:00,
2013-05-23 11:05:00,66.1,39.7,29.88,SSE,165,2.0,4.0,38,0.00,,,0.00,Wunderground v.1.15,2013-05-23 18:05:00,
2013-05-23 11:15:00,65.6,39.3,29.89,SSW,212,3.0,4.0,38,0.00,,,0.00,Wunderground v.1.15,2013-05-23 18:15:00,
2013-05-23 11:20:00,65.6,39.3,29.89,ESE,103,3.0,4.0,38,0.00,,,0.00,Wunderground v.1.15,2013-05-23 18:20:00,
2013-05-23 11:25:00,65.6,39.3,29.89,SSW,213,3.0,3.0,38,0.00,,,0.00,Wunderground v.1.15,2013-05-23 18:25:00,
2013-05-23 11:30:00,66.0,39.7,29.89,SW,218,2.0,3.0,38,0.00,,,0.00,Wunderground v.1.15,2013-05-23 18:30:00,
2013-05-23 11:35:00,66.3,39.9,29.90,SSE,151,2.0,2.0,38,0.00,,,0.00,Wunderground v.1.15,2013-05-23 18:35:00,
2013-05-23 11:45:00,67.7,39.0,29.90,SW,231,2.0,2.0,35,0.00,,,0.00,Wunderground v.1.15,2013-05-23 18:45:00,
2013-05-23 11:50:00,67.5,39.6,29.90,SSE,156,3.0,4.0,36,0.00,,,0.00,Wunderground v.1.15,2013-05-23 18:50:00,
2013-05-23 11:55:00,67.7,39.0,29.90,SSE,158,3.0,3.0,35,0.00,,,0.00,Wunderground v.1.15,2013-05-23 18:55:00,
2013-05-23 12:00:00,68.1,39.4,29.90,SSE,150,2.0,2.0,35,0.00,,,0.00,Wunderground v.1.15,2013-05-23 19:00:00,
2013-05-23 12:05:00,68.2,39.5,29.90,West,281,1.0,2.0,35,0.00,,,0.00,Wunderground v.1.15,2013-05-23 19:05:00,
2013-05-23 12:15:00,68.5,39.8,29.90,WSW,242,2.0,2.0,35,0.00,,,0.00,Wunderground v.1.15,2013-05-23 19:15:00,
2013-05-23 12:20:00,69.4,39.8,29.90,South,184,2.0,7.0,34,0.00,,,0.00,Wunderground v.1.15,2013-05-23 19:20:00,
2013-05-23 12:25:00,69.1,39.5,29.90,ESE,123,2.0,2.0,34,0.00,,,0.00,Wunderground v.1.15,2013-05-23 19:25:00,
2013-05-23 12:30:00,69.9,40.2,29.90,SE,124,2.0,2.0,34,0.00,,,0.00,Wunderground v.1.15,2013-05-23 19:30:00,
2013-05-23 12:35:00,70.5,40.0,29.90,SSW,203,3.0,3.0,33,0.00,,,0.00,Wunderground v.1.15,2013-05-23 19:35:00,
2013-05-23 12:45:00,71.0,39.6,29.90,SE,126,3.0,4.0,32,0.00,,,0.00,Wunderground v.1.15,2013-05-23 19:45:00,
2013-05-23 12:50:00,70.5,39.2,29.89,SSW,193,3.0,4.0,32,0.00,,,0.00,Wunderground v.1.15,2013-05-23 19:50:00,
2013-05-23 12:55:00,69.9,40.2,29.90,East,94,3.0,3.0,34,0.00,,,0.00,Wunderground v.1.15,2013-05-23 19:55:00,
2013-05-23 13:00:00,70.1,39.6,29.89,SE,130,3.0,4.0,33,0.00,,,0.00,Wunderground v.1.15,2013-05-23 20:00:00,
2013-05-23 13:05:00,70.0,40.3,29.90,SSE,161,3.0,4.0,34,0.00,,,0.00,Wunderground v.1.15,2013-05-23 20:05:00,
2013-05-23 13:15:00,70.4,39.1,29.90,SSE,147,3.0,3.0,32,0.00,,,0.00,Wunderground v.1.15,2013-05-23 20:15:00,
2013-05-23 13:20:00,70.3,39.8,29.90,SE,133,2.0,3.0,33,0.00,,,0.00,Wunderground v.1.15,2013-05-23 20:20:00,
2013-05-23 13:25:00,72.4,40.9,29.89,ESE,111,2.0,2.0,32,0.00,,,0.00,Wunderground v.1.15,2013-05-23 20:25:00,
2013-05-23 13:30:00,71.5,40.1,29.90,SE,128,2.0,4.0,32,0.00,,,0.00,Wunderground v.1.15,2013-05-23 20:30:00,
2013-05-23 13:35:00,70.7,40.2,29.90,SE,127,2.0,4.0,33,0.00,,,0.00,Wunderground v.1.15,2013-05-23 20:35:00,
2013-05-23 13:41:00,69.2,39.6,29.90,ESE,114,2.0,4.0,34,0.00,,,0.00,Wunderground v.1.15,2013-05-23 20:41:00,
2013-05-23 13:50:00,68.3,40.3,29.90,SW,235,2.0,4.0,36,0.00,,,0.00,Wunderground v.1.15,2013-05-23 20:50:00,
2013-05-23 13:55:00,69.6,40.7,29.90,West,272,2.0,2.0,35,0.00,,,0.00,Wunderground v.1.15,2013-05-23 20:55:00,
2013-05-23 14:00:00,69.7,40.8,29.90,West,265,1.0,1.0,35,0.00,,,0.00,Wunderground v.1.15,2013-05-23 21:00:00,
2013-05-23 14:05:00,70.9,40.3,29.90,SE,142,1.0,1.0,33,0.00,,,0.00,Wunderground v.1.15,2013-05-23 21:05:00,
2013-05-23 14:16:00,71.8,41.1,29.90,ESE,119,1.0,1.0,33,0.00,,,0.00,Wunderground v.1.15,2013-05-23 21:16:00,
2013-05-23 14:25:00,72.0,40.5,29.90,North,351,3.0,3.0,32,0.00,,,0.00,Wunderground v.1.15,2013-05-23 21:25:00,
2013-05-23 14:30:00,71.5,40.1,29.90,WSW,240,3.0,7.0,32,0.00,,,0.00,Wunderground v.1.15,2013-05-23 21:30:00,
2013-05-23 14:35:00,71.4,40.8,29.90,SSW,197,2.0,3.0,33,0.00,,,0.00,Wunderground v.1.15,2013-05-23 21:35:00,
2013-05-23 14:40:00,72.1,39.8,29.89,ESE,105,2.0,3.0,31,0.00,,,0.00,Wunderground v.1.15,2013-05-23 21:40:00,
2013-05-23 14:45:00,72.6,41.8,29.89,South,174,2.0,2.0,33,0.00,,,0.00,Wunderground v.1.15,2013-05-23 21:45:00,
2013-05-23 14:55:00,73.7,41.2,29.89,South,191,2.0,2.0,31,0.00,,,0.00,Wunderground v.1.15,2013-05-23 21:55:00,
2013-05-23 15:00:00,72.3,40.8,29.89,SW,217,3.0,3.0,32,0.00,,,0.00,Wunderground v.1.15,2013-05-23 22:00:00,
2013-05-23 15:05:00,72.3,40.8,29.89,SW,236,3.0,3.0,32,0.00,,,0.00,Wunderground v.1.15,2013-05-23 22:05:00,
2013-05-23 15:15:00,72.6,41.0,29.89,SE,146,3.0,3.0,32,0.00,,,0.00,Wunderground v.1.15,2013-05-23 22:15:00,
2013-05-23 15:20:00,71.9,40.4,29.89,South,174,3.0,3.0,32,0.00,,,0.00,Wunderground v.1.15,2013-05-23 22:20:00,
2013-05-23 15:25:00,70.8,40.3,29.89,SE,130,2.0,2.0,33,0.00,,,0.00,Wunderground v.1.15,2013-05-23 22:25:00,
2013-05-23 15:30:00,70.7,40.2,29.89,SSW,208,2.0,2.0,33,0.00,,,0.00,Wunderground v.1.15,2013-05-23 22:30:00,
2013-05-23 15:35:00,70.4,39.9,29.89,SE,127,1.0,1.0,33,0.00,,,0.00,Wunderground v.1.15,2013-05-23 22:35:00,
2013-05-23 15:40:00,70.6,40.9,29.89,SW,231,1.0,4.0,34,0.00,,,0.00,Wunderground v.1.15,2013-05-23 22:40:00,
2013-05-23 15:46:00,69.5,40.6,29.89,SW,228,3.0,4.0,35,0.00,,,0.00,Wunderground v.1.15,2013-05-23 22:46:00,
2013-05-23 15:55:00,68.9,41.5,29.89,SSE,149,4.0,4.0,37,0.00,,,0.00,Wunderground v.1.15,2013-05-23 22:55:00,
2013-05-23 16:00:00,68.7,42.7,29.89,WSW,249,3.0,5.0,39,0.00,,,0.00,Wunderground v.1.15,2013-05-23 23:00:00,
2013-05-23 16:05:00,68.4,42.5,29.89,SW,230,4.0,5.0,39,0.00,,,0.00,Wunderground v.1.15,2013-05-23 23:05:00,
2013-05-23 16:11:00,68.3,42.4,29.89,WSW,242,5.0,7.0,39,0.00,,,0.00,Wunderground v.1.15,2013-05-23 23:11:00,
2013-05-23 16:20:00,68.7,42.1,29.90,West,262,7.0,13.0,38,0.00,,,0.00,Wunderground v.1.15,2013-05-23 23:20:00,
2013-05-23 16:30:00,70.0,43.2,29.90,WSW,254,5.0,6.0,38,0.00,,,0.00,Wunderground v.1.15,2013-05-23 23:30:00,
2013-05-23 16:35:00,69.4,42.7,29.90,West,259,6.0,6.0,38,0.00,,,0.00,Wunderground v.1.15,2013-05-23 23:35:00,
2013-05-23 16:40:00,69.4,42.7,29.89,WSW,246,5.0,6.0,38,0.00,,,0.00,Wunderground v.1.15,2013-05-23 23:40:00,
2013-05-23 16:45:00,69.9,42.4,29.89,SW,229,5.0,6.0,37,0.00,,,0.00,Wunderground v.1.15,2013-05-23 23:45:00,
2013-05-23 16:50:00,70.5,42.2,29.89,SW,236,4.0,6.0,36,0.00,,,0.00,Wunderground v.1.15,2013-05-23 23:50:00,
2013-05-23 16:55:00,70.9,42.6,29.89,SW,218,4.0,4.0,36,0.00,,,0.00,Wunderground v.1.15,2013-05-23 23:55:00,
2013-05-23 17:00:00,70.7,42.4,29.89,SW,226,4.0,6.0,36,0.00,,,0.00,Wunderground v.1.15,2013-05-24 00:00:00,
2013-05-23 17:06:00,70.4,41.4,29.89,SW,230,4.0,6.0,35,0.00,,,0.00,Wunderground v.1.15,2013-05-24 00:06:00,
2013-05-23 17:15:00,71.0,41.2,29.89,WSW,238,3.0,7.0,34,0.00,,,0.00,Wunderground v.1.15,2013-05-24 00:15:00,
2013-05-23 17:20:00,71.0,41.2,29.89,SW,223,3.0,4.0,34,0.00,,,0.00,Wunderground v.1.15,2013-05-24 00:20:00,
2013-05-23 17:25:00,71.0,41.2,29.89,SW,231,4.0,5.0,34,0.00,,,0.00,Wunderground v.1.15,2013-05-24 00:25:00,
2013-05-23 17:30:00,70.6,40.9,29.89,SW,224,5.0,7.0,34,0.00,,,0.00,Wunderground v.1.15,2013-05-24 00:30:00,
2013-05-23 17:36:00,71.1,41.3,29.89,SW,225,4.0,7.0,34,0.00,,,0.00,Wunderground v.1.15,2013-05-24 00:36:00,
2013-05-23 17:45:00,71.0,41.2,29.89,SW,230,4.0,6.0,34,0.00,,,0.00,Wunderground v.1.15,2013-05-24 00:45:00,
2013-05-23 17:50:00,71.5,41.6,29.89,WSW,240,4.0,4.0,34,0.00,,,0.00,Wunderground v.1.15,2013-05-24 00:50:00,
2013-05-23 17:55:00,71.6,41.0,29.89,West,267,3.0,4.0,33,0.00,,,0.00,Wunderground v.1.15,2013-05-24 00:55:00,
2013-05-23 18:00:00,71.9,41.2,29.89,West,260,2.0,2.0,33,0.00,,,0.00,Wunderground v.1.15,2013-05-24 01:00:00,
2013-05-23 18:11:00,71.7,40.3,29.89,WSW,239,2.0,5.0,32,0.00,,,0.00,Wunderground v.1.15,2013-05-24 01:11:00,
2013-05-23 18:21:00,71.5,40.1,29.88,South,172,2.0,2.0,32,0.00,,,0.00,Wunderground v.1.15,2013-05-24 01:21:00,
2013-05-23 18:30:00,72.2,40.7,29.88,WNW,282,1.0,1.0,32,0.00,,,0.00,Wunderground v.1.15,2013-05-24 01:30:00,
2013-05-23 18:35:00,72.9,40.5,29.88,WNW,288,1.0,1.0,31,0.00,,,0.00,Wunderground v.1.15,2013-05-24 01:35:00,
2013-05-23 18:40:00,73.1,40.7,29.88,WSW,258,1.0,1.0,31,0.00,,,0.00,Wunderground v.1.15,2013-05-24 01:40:00,
2013-05-23 18:45:00,73.2,40.7,29.88,WNW,295,1.0,1.0,31,0.00,,,0.00,Wunderground v.1.15,2013-05-24 01:45:00,
2013-05-23 18:50:00,72.7,40.3,29.88,SW,216,2.0,2.0,31,0.00,,,0.00,Wunderground v.1.15,2013-05-24 01:50:00,
2013-05-23 18:56:00,72.3,40.8,29.88,SW,214,2.0,2.0,32,0.00,,,0.00,Wunderground v.1.15,2013-05-24 01:56:00,
2013-05-23 19:05:00,73.0,40.6,29.88,WSW,256,1.0,1.0,31,0.00,,,0.00,Wunderground v.1.15,2013-05-24 02:05:00,
2013-05-23 19:15:00,69.6,39.2,29.88,SSW,212,3.0,3.0,33,0.00,,,0.00,Wunderground v.1.15,2013-05-24 02:15:00,
2013-05-23 19:20:00,68.2,39.5,29.89,WSW,256,4.0,4.0,35,0.00,,,0.00,Wunderground v.1.15,2013-05-24 02:20:00,
2013-05-23 19:25:00,67.1,39.2,29.89,SSW,213,3.0,3.0,36,0.00,,,0.00,Wunderground v.1.15,2013-05-24 02:25:00,
2013-05-23 19:30:00,66.5,39.4,29.89,WSW,245,2.0,3.0,37,0.00,,,0.00,Wunderground v.1.15,2013-05-24 02:30:00,
2013-05-23 19:40:00,65.2,39.6,29.89,SW,215,1.0,2.0,39,0.00,,,0.00,Wunderground v.1.15,2013-05-24 02:40:00,
2013-05-23 19:45:00,64.5,39.0,29.89,East,98,0.0,1.0,39,0.00,,,0.00,Wunderground v.1.15,2013-05-24 02:45:00,
2013-05-23 19:50:00,63.8,39.6,29.89,East,98,0.0,1.0,41,0.00,,,0.00,Wunderground v.1.15,2013-05-24 02:50:00,
2013-05-23 19:55:00,63.0,38.9,29.89,ENE,60,1.0,2.0,41,0.00,,,0.00,Wunderground v.1.15,2013-05-24 02:55:00,
2013-05-23 20:00:00,62.7,39.3,29.89,NE,48,1.0,2.0,42,0.00,,,0.00,Wunderground v.1.15,2013-05-24 03:00:00,
2013-05-23 20:05:00,62.8,39.4,29.89,NE,40,2.0,2.0,42,0.00,,,0.00,Wunderground v.1.15,2013-05-24 03:05:00,
2013-05-23 20:15:00,62.9,39.4,29.89,East,79,2.0,3.0,42,0.00,,,0.00,Wunderground v.1.15,2013-05-24 03:15:00,
2013-05-23 20:20:00,62.6,39.2,29.89,NNW,348,3.0,3.0,42,0.00,,,0.00,Wunderground v.1.15,2013-05-24 03:20:00,
2013-05-23 20:25:00,62.4,39.0,29.89,NNW,344,2.0,3.0,42,0.00,,,0.00,Wunderground v.1.15,2013-05-24 03:25:00,
2013-05-23 20:30:00,62.2,39.4,29.89,NNW,331,1.0,1.0,43,0.00,,,0.00,Wunderground v.1.15,2013-05-24 03:30:00,
2013-05-23 20:35:00,61.8,38.4,29.89,NNE,13,1.0,2.0,42,0.00,,,0.00,Wunderground v.1.15,2013-05-24 03:35:00,
2013-05-23 20:40:00,61.7,39.0,29.89,NE,47,1.0,1.0,43,0.00,,,0.00,Wunderground v.1.15,2013-05-24 03:40:00,
2013-05-23 20:45:00,61.3,39.2,29.90,NNE,12,1.0,1.0,44,0.00,,,0.00,Wunderground v.1.15,2013-05-24 03:45:00,
2013-05-23 20:50:00,61.0,39.5,29.90,NE,39,2.0,2.0,45,0.00,,,0.00,Wunderground v.1.15,2013-05-24 03:50:00,
2013-05-23 20:56:00,60.9,38.8,29.90,NE,44,2.0,2.0,44,0.00,,,0.00,Wunderground v.1.15,2013-05-24 03:56:00,
2013-05-23 21:05:00,60.6,38.6,29.90,ENE,57,2.0,3.0,44,0.00,,,0.00,Wunderground v.1.15,2013-05-24 04:05:00,
2013-05-23 21:11:00,60.6,38.6,29.90,ENE,70,1.0,1.0,44,0.00,,,0.00,Wunderground v.1.15,2013-05-24 04:11:00,
2013-05-23 21:15:00,60.6,38.6,29.90,NE,46,1.0,2.0,44,0.00,,,0.00,Wunderground v.1.15,2013-05-24 04:15:00,
2013-05-23 21:20:00,60.8,38.7,29.90,North,358,1.0,2.0,44,0.00,,,0.00,Wunderground v.1.15,2013-05-24 04:20:00,
2013-05-23 21:26:00,60.6,38.6,29.90,NNW,341,1.0,1.0,44,0.00,,,0.00,Wunderground v.1.15,2013-05-24 04:26:00,
2013-05-23 21:30:00,60.7,38.6,29.90,WNW,300,1.0,1.0,44,0.00,,,0.00,Wunderground v.1.15,2013-05-24 04:30:00,
2013-05-23 21:35:00,60.2,38.8,29.91,NNW,340,0.0,0.0,45,0.00,,,0.00,Wunderground v.1.15,2013-05-24 04:35:00,
2013-05-23 21:40:00,59.8,39.0,29.91,NNW,341,0.0,0.0,46,0.00,,,0.00,Wunderground v.1.15,2013-05-24 04:40:00,
2013-05-23 21:45:00,59.6,39.3,29.91,North,11,0.0,0.0,47,0.00,,,0.00,Wunderground v.1.15,2013-05-24 04:45:00,
2013-05-23 21:50:00,59.3,39.1,29.91,North,11,0.0,0.0,47,0.00,,,0.00,Wunderground v.1.15,2013-05-24 04:50:00,
2013-05-23 21:55:00,59.4,39.1,29.91,West,260,0.0,0.0,47,0.00,,,0.00,Wunderground v.1.15,2013-05-24 04:55:00,
2013-05-23 22:05:00,59.0,39.3,29.92,NW,305,1.0,1.0,48,0.00,,,0.00,Wunderground v.1.15,2013-05-24 05:05:00,
2013-05-23 22:11:00,59.2,39.5,29.92,WNW,293,0.0,0.0,48,0.00,,,0.00,Wunderground v.1.15,2013-05-24 05:11:00,
2013-05-23 22:20:00,58.0,39.5,29.92,WNW,293,0.0,0.0,50,0.00,,,0.00,Wunderground v.1.15,2013-05-24 05:20:00,
2013-05-23 22:25:00,57.7,39.2,29.92,North,350,0.0,0.0,50,0.00,,,0.00,Wunderground v.1.15,2013-05-24 05:25:00,
2013-05-23 22:30:00,58.2,39.6,29.92,NW,307,0.0,1.0,50,0.00,,,0.00,Wunderground v.1.15,2013-05-24 05:30:00,
2013-05-23 22:35:00,58.8,39.7,29.92,WNW,303,0.0,1.0,49,0.00,,,0.00,Wunderground v.1.15,2013-05-24 05:35:00,
2013-05-23 22:40:00,58.9,39.2,29.92,NNW,338,0.0,0.0,48,0.00,,,0.00,Wunderground v.1.15,2013-05-24 05:40:00,
2013-05-23 22:45:00,59.2,39.5,29.92,ESE,122,0.0,0.0,48,0.00,,,0.00,Wunderground v.1.15,2013-05-24 05:45:00,
2013-05-23 22:50:00,58.3,39.2,29.92,South,179,0.0,0.0,49,0.00,,,0.00,Wunderground v.1.15,2013-05-24 05:50:00,
2013-05-23 22:55:00,57.5,39.0,29.91,South,179,0.0,0.0,50,0.00,,,0.00,Wunderground v.1.15,2013-05-24 05:55:00,
2013-05-23 23:05:00,56.4,39.5,29.91,South,183,0.0,0.0,53,0.00,,,0.00,Wunderground v.1.15,2013-05-24 06:05:00,
2013-05-23 23:11:00,55.8,39.4,29.91,South,184,0.0,0.0,54,0.00,,,0.00,Wunderground v.1.15,2013-05-24 06:11:00,
2013-05-23 23:20:00,55.8,39.4,29.91,NW,319,0.0,0.0,54,0.00,,,0.00,Wunderground v.1.15,2013-05-24 06:20:00,
2013-05-23 23:25:00,55.7,39.3,29.90,ENE,71,0.0,2.0,54,0.00,,,0.00,Wunderground v.1.15,2013-05-24 06:25:00,
2013-05-23 23:30:00,56.1,38.2,29.90,WNW,293,0.0,0.0,51,0.00,,,0.00,Wunderground v.1.15,2013-05-24 06:30:00,
2013-05-23 23:36:00,57.1,38.1,29.90,NNE,15,1.0,1.0,49,0.00,,,0.00,Wunderground v.1.15,2013-05-24 06:36:00,
2013-05-23 23:45:00,57.4,37.9,29.90,NW,324,0.0,1.0,48,0.00,,,0.00,Wunderground v.1.15,2013-05-24 06:45:00,
2013-05-23 23:50:00,57.6,37.5,29.90,WSW,257,0.0,1.0,47,0.00,,,0.00,Wunderground v.1.15,2013-05-24 06:50:00,
2013-05-23 23:55:00,58.2,37.5,29.90,NW,319,1.0,1.0,46,0.00,,,0.00,Wunderground v.1.15,2013-05-24 06:55:00,